sensor_id;sensor_type;location;lat;lon;timestamp;P1;durP1;ratioP1;P2;durP2;ratioP2
53309;SDS011;39197;53.200;5.792;2022-07-23T00:00:31;7.97;;;5.95;;
53309;SDS011;39197;53.200;5.792;2022-07-23T00:02:57;6.00;;;4.22;;
53309;SDS011;39197;53.200;5.792;2022-07-23T00:05:23;5.85;;;3.95;;
53309;SDS011;39197;53.200;5.792;2022-07-23T00:07:48;9.57;;;7.68;;
53309;SDS011;39197;53.200;5.792;2022-07-23T00:10:14;8.63;;;5.50;;
53309;SDS011;39197;53.200;5.792;2022-07-23T00:12:40;7.70;;;5.70;;
53309;SDS011;39197;53.200;5.792;2022-07-23T00:15:06;8.82;;;5.90;;
53309;SDS011;39197;53.200;5.792;2022-07-23T00:17:32;7.50;;;5.28;;
53309;SDS011;39197;53.200;5.792;2022-07-23T00:19:58;6.57;;;5.22;;
53309;SDS011;39197;53.200;5.792;2022-07-23T00:22:24;7.93;;;5.18;;
53309;SDS011;39197;53.200;5.792;2022-07-23T00:24:50;7.38;;;4.93;;
53309;SDS011;39197;53.200;5.792;2022-07-23T00:27:15;10.23;;;7.25;;
53309;SDS011;39197;53.200;5.792;2022-07-23T00:29:41;7.38;;;6.05;;
53309;SDS011;39197;53.200;5.792;2022-07-23T00:32:06;10.88;;;8.70;;
53309;SDS011;39197;53.200;5.792;2022-07-23T00:34:32;11.60;;;7.35;;
53309;SDS011;39197;53.200;5.792;2022-07-23T00:36:58;9.98;;;7.13;;
53309;SDS011;39197;53.200;5.792;2022-07-23T00:39:23;8.95;;;5.30;;
53309;SDS011;39197;53.200;5.792;2022-07-23T00:41:49;8.32;;;5.70;;
53309;SDS011;39197;53.200;5.792;2022-07-23T00:46:56;7.80;;;6.15;;
53309;SDS011;39197;53.200;5.792;2022-07-23T00:49:23;8.55;;;6.22;;
53309;SDS011;39197;53.200;5.792;2022-07-23T00:51:51;8.02;;;5.35;;
53309;SDS011;39197;53.200;5.792;2022-07-23T00:54:17;9.10;;;5.63;;
53309;SDS011;39197;53.200;5.792;2022-07-23T00:56:44;6.78;;;5.32;;
53309;SDS011;39197;53.200;5.792;2022-07-23T00:59:10;10.57;;;6.93;;
53309;SDS011;39197;53.200;5.792;2022-07-23T01:01:36;8.35;;;4.85;;
53309;SDS011;39197;53.200;5.792;2022-07-23T01:04:02;8.93;;;5.03;;
53309;SDS011;39197;53.200;5.792;2022-07-23T01:06:28;8.05;;;4.80;;
53309;SDS011;39197;53.200;5.792;2022-07-23T01:08:54;7.25;;;5.18;;
53309;SDS011;39197;53.200;5.792;2022-07-23T01:11:20;7.18;;;5.93;;
53309;SDS011;39197;53.200;5.792;2022-07-23T01:13:48;7.05;;;4.53;;
53309;SDS011;39197;53.200;5.792;2022-07-23T01:16:13;8.43;;;4.18;;
53309;SDS011;39197;53.200;5.792;2022-07-23T01:18:39;6.95;;;5.75;;
53309;SDS011;39197;53.200;5.792;2022-07-23T01:21:05;9.57;;;5.65;;
53309;SDS011;39197;53.200;5.792;2022-07-23T01:23:30;11.20;;;5.65;;
53309;SDS011;39197;53.200;5.792;2022-07-23T01:25:56;8.98;;;5.70;;
53309;SDS011;39197;53.200;5.792;2022-07-23T01:28:22;7.65;;;4.85;;
53309;SDS011;39197;53.200;5.792;2022-07-23T01:30:48;9.00;;;6.55;;
53309;SDS011;39197;53.200;5.792;2022-07-23T01:33:14;8.25;;;5.28;;
53309;SDS011;39197;53.200;5.792;2022-07-23T01:35:39;8.95;;;5.13;;
53309;SDS011;39197;53.200;5.792;2022-07-23T01:38:05;7.80;;;5.32;;
53309;SDS011;39197;53.200;5.792;2022-07-23T01:40:31;5.85;;;4.97;;
53309;SDS011;39197;53.200;5.792;2022-07-23T01:42:57;5.80;;;4.18;;
53309;SDS011;39197;53.200;5.792;2022-07-23T01:45:22;11.13;;;5.40;;
53309;SDS011;39197;53.200;5.792;2022-07-23T01:47:48;5.32;;;4.78;;
53309;SDS011;39197;53.200;5.792;2022-07-23T01:50:14;6.57;;;4.68;;
53309;SDS011;39197;53.200;5.792;2022-07-23T01:52:39;7.75;;;4.60;;
53309;SDS011;39197;53.200;5.792;2022-07-23T01:55:05;7.25;;;4.35;;
53309;SDS011;39197;53.200;5.792;2022-07-23T01:57:32;12.50;;;4.55;;
53309;SDS011;39197;53.200;5.792;2022-07-23T01:59:58;6.55;;;4.63;;
53309;SDS011;39197;53.200;5.792;2022-07-23T02:02:24;6.45;;;3.47;;
53309;SDS011;39197;53.200;5.792;2022-07-23T02:04:49;5.45;;;3.30;;
53309;SDS011;39197;53.200;5.792;2022-07-23T02:07:15;9.73;;;4.75;;
53309;SDS011;39197;53.200;5.792;2022-07-23T02:09:40;6.55;;;3.95;;
53309;SDS011;39197;53.200;5.792;2022-07-23T02:12:06;6.32;;;3.67;;
53309;SDS011;39197;53.200;5.792;2022-07-23T02:14:32;10.02;;;3.88;;
53309;SDS011;39197;53.200;5.792;2022-07-23T02:16:57;6.78;;;3.95;;
53309;SDS011;39197;53.200;5.792;2022-07-23T02:19:23;5.55;;;4.53;;
53309;SDS011;39197;53.200;5.792;2022-07-23T02:21:49;5.57;;;3.90;;
53309;SDS011;39197;53.200;5.792;2022-07-23T02:24:15;7.22;;;5.10;;
53309;SDS011;39197;53.200;5.792;2022-07-23T02:26:41;7.88;;;5.05;;
53309;SDS011;39197;53.200;5.792;2022-07-23T02:29:06;7.90;;;4.72;;
53309;SDS011;39197;53.200;5.792;2022-07-23T02:31:32;5.75;;;4.35;;
53309;SDS011;39197;53.200;5.792;2022-07-23T02:33:58;6.57;;;5.38;;
53309;SDS011;39197;53.200;5.792;2022-07-23T02:36:25;9.57;;;5.32;;
53309;SDS011;39197;53.200;5.792;2022-07-23T02:38:50;7.25;;;4.57;;
53309;SDS011;39197;53.200;5.792;2022-07-23T02:41:16;7.82;;;6.10;;
53309;SDS011;39197;53.200;5.792;2022-07-23T02:43:42;6.03;;;4.38;;
53309;SDS011;39197;53.200;5.792;2022-07-23T02:46:07;6.75;;;4.68;;
53309;SDS011;39197;53.200;5.792;2022-07-23T02:48:33;7.50;;;5.40;;
53309;SDS011;39197;53.200;5.792;2022-07-23T02:50:59;5.78;;;4.15;;
53309;SDS011;39197;53.200;5.792;2022-07-23T02:53:24;8.73;;;5.95;;
53309;SDS011;39197;53.200;5.792;2022-07-23T02:55:50;12.40;;;6.15;;
53309;SDS011;39197;53.200;5.792;2022-07-23T02:58:15;7.85;;;6.40;;
53309;SDS011;39197;53.200;5.792;2022-07-23T03:00:41;8.80;;;5.13;;
53309;SDS011;39197;53.200;5.792;2022-07-23T03:03:07;6.20;;;4.35;;
53309;SDS011;39197;53.200;5.792;2022-07-23T03:05:33;10.85;;;6.38;;
53309;SDS011;39197;53.200;5.792;2022-07-23T03:07:59;5.47;;;4.07;;
53309;SDS011;39197;53.200;5.792;2022-07-23T03:10:24;6.75;;;4.28;;
53309;SDS011;39197;53.200;5.792;2022-07-23T03:12:50;10.13;;;5.03;;
53309;SDS011;39197;53.200;5.792;2022-07-23T03:15:16;6.53;;;4.07;;
53309;SDS011;39197;53.200;5.792;2022-07-23T03:17:41;8.35;;;4.95;;
53309;SDS011;39197;53.200;5.792;2022-07-23T03:20:07;7.47;;;4.65;;
53309;SDS011;39197;53.200;5.792;2022-07-23T03:22:33;7.65;;;5.95;;
53309;SDS011;39197;53.200;5.792;2022-07-23T03:24:59;6.22;;;4.43;;
53309;SDS011;39197;53.200;5.792;2022-07-23T03:27:25;11.80;;;3.90;;
53309;SDS011;39197;53.200;5.792;2022-07-23T03:29:53;7.18;;;4.63;;
53309;SDS011;39197;53.200;5.792;2022-07-23T03:32:20;6.60;;;3.83;;
53309;SDS011;39197;53.200;5.792;2022-07-23T03:34:46;6.55;;;4.10;;
53309;SDS011;39197;53.200;5.792;2022-07-23T03:37:12;8.70;;;4.10;;
53309;SDS011;39197;53.200;5.792;2022-07-23T03:39:37;7.10;;;4.47;;
53309;SDS011;39197;53.200;5.792;2022-07-23T03:42:03;7.53;;;3.70;;
53309;SDS011;39197;53.200;5.792;2022-07-23T03:44:29;6.38;;;4.05;;
53309;SDS011;39197;53.200;5.792;2022-07-23T03:46:54;9.52;;;3.78;;
53309;SDS011;39197;53.200;5.792;2022-07-23T03:49:20;7.38;;;4.55;;
53309;SDS011;39197;53.200;5.792;2022-07-23T03:51:46;7.70;;;4.65;;
53309;SDS011;39197;53.200;5.792;2022-07-23T03:54:12;5.35;;;3.72;;
53309;SDS011;39197;53.200;5.792;2022-07-23T03:56:37;5.28;;;4.18;;
53309;SDS011;39197;53.200;5.792;2022-07-23T03:59:03;5.03;;;4.13;;
53309;SDS011;39197;53.200;5.792;2022-07-23T04:01:29;7.07;;;3.78;;
53309;SDS011;39197;53.200;5.792;2022-07-23T04:03:54;4.75;;;3.63;;
53309;SDS011;39197;53.200;5.792;2022-07-23T04:06:20;6.22;;;3.45;;
53309;SDS011;39197;53.200;5.792;2022-07-23T04:08:45;7.70;;;3.67;;
53309;SDS011;39197;53.200;5.792;2022-07-23T04:11:11;10.80;;;4.32;;
53309;SDS011;39197;53.200;5.792;2022-07-23T04:13:37;6.88;;;4.13;;
53309;SDS011;39197;53.200;5.792;2022-07-23T04:16:02;9.05;;;3.45;;
53309;SDS011;39197;53.200;5.792;2022-07-23T04:18:28;5.38;;;3.80;;
53309;SDS011;39197;53.200;5.792;2022-07-23T04:20:54;7.55;;;4.40;;
53309;SDS011;39197;53.200;5.792;2022-07-23T04:23:20;4.65;;;3.45;;
53309;SDS011;39197;53.200;5.792;2022-07-23T04:25:45;6.85;;;4.32;;
53309;SDS011;39197;53.200;5.792;2022-07-23T04:28:11;9.77;;;5.15;;
53309;SDS011;39197;53.200;5.792;2022-07-23T04:30:36;7.22;;;4.30;;
53309;SDS011;39197;53.200;5.792;2022-07-23T04:33:02;7.00;;;3.85;;
53309;SDS011;39197;53.200;5.792;2022-07-23T04:35:31;7.25;;;3.67;;
53309;SDS011;39197;53.200;5.792;2022-07-23T04:38:00;7.60;;;3.80;;
53309;SDS011;39197;53.200;5.792;2022-07-23T04:40:26;7.10;;;3.47;;
53309;SDS011;39197;53.200;5.792;2022-07-23T04:42:52;8.98;;;4.18;;
53309;SDS011;39197;53.200;5.792;2022-07-23T04:45:18;10.57;;;3.63;;
53309;SDS011;39197;53.200;5.792;2022-07-23T04:47:43;6.03;;;3.08;;
53309;SDS011;39197;53.200;5.792;2022-07-23T04:50:09;4.68;;;3.25;;
53309;SDS011;39197;53.200;5.792;2022-07-23T04:52:35;9.25;;;3.17;;
53309;SDS011;39197;53.200;5.792;2022-07-23T04:55:01;4.75;;;3.30;;
53309;SDS011;39197;53.200;5.792;2022-07-23T04:57:26;3.65;;;3.15;;
53309;SDS011;39197;53.200;5.792;2022-07-23T04:59:52;6.72;;;3.28;;
53309;SDS011;39197;53.200;5.792;2022-07-23T05:02:18;7.82;;;3.53;;
53309;SDS011;39197;53.200;5.792;2022-07-23T05:04:43;4.45;;;3.10;;
53309;SDS011;39197;53.200;5.792;2022-07-23T05:07:09;7.85;;;3.42;;
53309;SDS011;39197;53.200;5.792;2022-07-23T05:09:34;4.47;;;2.92;;
53309;SDS011;39197;53.200;5.792;2022-07-23T05:12:00;4.75;;;3.13;;
53309;SDS011;39197;53.200;5.792;2022-07-23T05:14:26;4.55;;;3.25;;
53309;SDS011;39197;53.200;5.792;2022-07-23T05:16:52;3.80;;;2.60;;
53309;SDS011;39197;53.200;5.792;2022-07-23T05:19:18;4.68;;;2.30;;
53309;SDS011;39197;53.200;5.792;2022-07-23T05:21:44;7.50;;;1.98;;
53309;SDS011;39197;53.200;5.792;2022-07-23T05:24:09;2.22;;;1.80;;
53309;SDS011;39197;53.200;5.792;2022-07-23T05:26:35;9.70;;;1.65;;
53309;SDS011;39197;53.200;5.792;2022-07-23T05:29:00;1.85;;;1.50;;
53309;SDS011;39197;53.200;5.792;2022-07-23T05:31:26;4.00;;;1.40;;
53309;SDS011;39197;53.200;5.792;2022-07-23T05:33:51;6.90;;;1.83;;
53309;SDS011;39197;53.200;5.792;2022-07-23T05:36:17;3.85;;;1.30;;
53309;SDS011;39197;53.200;5.792;2022-07-23T05:38:43;2.38;;;1.10;;
53309;SDS011;39197;53.200;5.792;2022-07-23T05:41:08;3.92;;;1.02;;
53309;SDS011;39197;53.200;5.792;2022-07-23T05:43:34;2.67;;;1.10;;
53309;SDS011;39197;53.200;5.792;2022-07-23T05:45:59;1.50;;;0.85;;
53309;SDS011;39197;53.200;5.792;2022-07-23T05:48:25;3.60;;;0.73;;
53309;SDS011;39197;53.200;5.792;2022-07-23T05:50:50;3.28;;;0.93;;
53309;SDS011;39197;53.200;5.792;2022-07-23T05:53:16;3.22;;;0.70;;
53309;SDS011;39197;53.200;5.792;2022-07-23T05:55:42;1.73;;;0.50;;
53309;SDS011;39197;53.200;5.792;2022-07-23T05:58:07;1.55;;;0.32;;
53309;SDS011;39197;53.200;5.792;2022-07-23T06:00:34;3.38;;;0.50;;
53309;SDS011;39197;53.200;5.792;2022-07-23T06:03:00;3.17;;;0.30;;
53309;SDS011;39197;53.200;5.792;2022-07-23T06:05:26;3.30;;;1.02;;
53309;SDS011;39197;53.200;5.792;2022-07-23T06:07:51;1.65;;;0.40;;
53309;SDS011;39197;53.200;5.792;2022-07-23T06:10:18;2.33;;;0.47;;
53309;SDS011;39197;53.200;5.792;2022-07-23T06:12:44;2.97;;;0.75;;
53309;SDS011;39197;53.200;5.792;2022-07-23T06:15:09;0.75;;;0.15;;
53309;SDS011;39197;53.200;5.792;2022-07-23T06:17:36;2.08;;;0.22;;
53309;SDS011;39197;53.200;5.792;2022-07-23T06:20:04;2.28;;;0.30;;
53309;SDS011;39197;53.200;5.792;2022-07-23T06:22:31;1.60;;;0.50;;
53309;SDS011;39197;53.200;5.792;2022-07-23T06:24:56;1.70;;;0.25;;
53309;SDS011;39197;53.200;5.792;2022-07-23T06:27:22;0.73;;;0.30;;
53309;SDS011;39197;53.200;5.792;2022-07-23T06:29:48;4.40;;;0.60;;
53309;SDS011;39197;53.200;5.792;2022-07-23T06:32:13;10.93;;;2.28;;
53309;SDS011;39197;53.200;5.792;2022-07-23T06:34:39;4.55;;;0.30;;
53309;SDS011;39197;53.200;5.792;2022-07-23T06:37:04;1.60;;;0.38;;
53309;SDS011;39197;53.200;5.792;2022-07-23T06:39:30;2.35;;;0.30;;
53309;SDS011;39197;53.200;5.792;2022-07-23T06:41:56;1.27;;;0.40;;
53309;SDS011;39197;53.200;5.792;2022-07-23T06:44:21;1.92;;;0.20;;
53309;SDS011;39197;53.200;5.792;2022-07-23T06:46:47;2.45;;;0.20;;
53309;SDS011;39197;53.200;5.792;2022-07-23T06:49:13;0.85;;;0.20;;
53309;SDS011;39197;53.200;5.792;2022-07-23T06:51:38;1.00;;;0.20;;
53309;SDS011;39197;53.200;5.792;2022-07-23T06:54:04;0.63;;;0.20;;
53309;SDS011;39197;53.200;5.792;2022-07-23T06:56:30;1.75;;;0.20;;
53309;SDS011;39197;53.200;5.792;2022-07-23T06:58:55;1.58;;;0.20;;
53309;SDS011;39197;53.200;5.792;2022-07-23T07:01:21;1.45;;;0.10;;
53309;SDS011;39197;53.200;5.792;2022-07-23T07:03:47;1.08;;;0.10;;
53309;SDS011;39197;53.200;5.792;2022-07-23T07:06:12;1.23;;;0.10;;
53309;SDS011;39197;53.200;5.792;2022-07-23T07:08:38;0.65;;;0.10;;
53309;SDS011;39197;53.200;5.792;2022-07-23T07:11:04;1.58;;;0.10;;
53309;SDS011;39197;53.200;5.792;2022-07-23T07:13:30;0.75;;;0.10;;
53309;SDS011;39197;53.200;5.792;2022-07-23T07:15:55;0.32;;;0.03;;
53309;SDS011;39197;53.200;5.792;2022-07-23T07:18:21;4.07;;;0.75;;
53309;SDS011;39197;53.200;5.792;2022-07-23T07:20:47;1.70;;;0.17;;
53309;SDS011;39197;53.200;5.792;2022-07-23T07:23:13;1.52;;;0.10;;
53309;SDS011;39197;53.200;5.792;2022-07-23T07:25:39;2.58;;;0.30;;
53309;SDS011;39197;53.200;5.792;2022-07-23T07:28:05;1.08;;;0.20;;
53309;SDS011;39197;53.200;5.792;2022-07-23T07:30:30;4.88;;;2.60;;
53309;SDS011;39197;53.200;5.792;2022-07-23T07:32:56;1.52;;;0.25;;
53309;SDS011;39197;53.200;5.792;2022-07-23T07:35:21;2.10;;;0.40;;
53309;SDS011;39197;53.200;5.792;2022-07-23T07:37:47;1.42;;;0.10;;
53309;SDS011;39197;53.200;5.792;2022-07-23T07:40:12;1.77;;;0.20;;
53309;SDS011;39197;53.200;5.792;2022-07-23T07:42:48;0.77;;;0.10;;
53309;SDS011;39197;53.200;5.792;2022-07-23T07:45:15;0.90;;;0.10;;
53309;SDS011;39197;53.200;5.792;2022-07-23T07:47:41;1.75;;;0.10;;
53309;SDS011;39197;53.200;5.792;2022-07-23T07:50:07;1.05;;;0.10;;
53309;SDS011;39197;53.200;5.792;2022-07-23T07:52:34;2.28;;;0.57;;
53309;SDS011;39197;53.200;5.792;2022-07-23T07:55:03;2.35;;;0.40;;
53309;SDS011;39197;53.200;5.792;2022-07-23T07:57:30;0.88;;;0.13;;
53309;SDS011;39197;53.200;5.792;2022-07-23T07:59:55;0.98;;;0.20;;
53309;SDS011;39197;53.200;5.792;2022-07-23T08:02:21;2.80;;;0.35;;
53309;SDS011;39197;53.200;5.792;2022-07-23T08:04:47;1.23;;;0.25;;
53309;SDS011;39197;53.200;5.792;2022-07-23T08:07:13;1.85;;;0.20;;
53309;SDS011;39197;53.200;5.792;2022-07-23T08:09:39;1.83;;;0.35;;
53309;SDS011;39197;53.200;5.792;2022-07-23T08:12:05;1.88;;;0.30;;
53309;SDS011;39197;53.200;5.792;2022-07-23T08:14:31;1.90;;;0.30;;
53309;SDS011;39197;53.200;5.792;2022-07-23T08:16:56;1.35;;;0.15;;
53309;SDS011;39197;53.200;5.792;2022-07-23T08:19:22;3.25;;;0.60;;
53309;SDS011;39197;53.200;5.792;2022-07-23T08:21:47;1.50;;;0.43;;
53309;SDS011;39197;53.200;5.792;2022-07-23T08:24:13;2.17;;;0.52;;
53309;SDS011;39197;53.200;5.792;2022-07-23T08:26:39;1.27;;;0.20;;
53309;SDS011;39197;53.200;5.792;2022-07-23T08:29:04;0.40;;;0.30;;
53309;SDS011;39197;53.200;5.792;2022-07-23T08:31:30;1.80;;;0.20;;
53309;SDS011;39197;53.200;5.792;2022-07-23T08:33:58;1.98;;;0.20;;
53309;SDS011;39197;53.200;5.792;2022-07-23T08:36:24;4.47;;;0.10;;
53309;SDS011;39197;53.200;5.792;2022-07-23T08:38:52;0.38;;;0.10;;
53309;SDS011;39197;53.200;5.792;2022-07-23T08:41:20;1.33;;;0.20;;
53309;SDS011;39197;53.200;5.792;2022-07-23T08:43:46;1.50;;;0.20;;
53309;SDS011;39197;53.200;5.792;2022-07-23T08:46:12;3.42;;;0.20;;
53309;SDS011;39197;53.200;5.792;2022-07-23T08:48:38;2.47;;;0.30;;
53309;SDS011;39197;53.200;5.792;2022-07-23T08:51:04;1.58;;;0.20;;
53309;SDS011;39197;53.200;5.792;2022-07-23T08:53:31;0.82;;;0.20;;
53309;SDS011;39197;53.200;5.792;2022-07-23T08:55:59;1.85;;;0.20;;
53309;SDS011;39197;53.200;5.792;2022-07-23T08:58:28;2.45;;;0.30;;
53309;SDS011;39197;53.200;5.792;2022-07-23T09:00:55;1.80;;;0.22;;
53309;SDS011;39197;53.200;5.792;2022-07-23T09:03:24;1.38;;;0.20;;
53309;SDS011;39197;53.200;5.792;2022-07-23T09:05:52;0.73;;;0.17;;
53309;SDS011;39197;53.200;5.792;2022-07-23T09:08:22;2.50;;;0.20;;
53309;SDS011;39197;53.200;5.792;2022-07-23T09:11:00;2.17;;;0.40;;
53309;SDS011;39197;53.200;5.792;2022-07-23T09:13:37;2.80;;;0.22;;
53309;SDS011;39197;53.200;5.792;2022-07-23T09:18:48;3.72;;;0.22;;
53309;SDS011;39197;53.200;5.792;2022-07-23T09:21:20;2.00;;;0.47;;
53309;SDS011;39197;53.200;5.792;2022-07-23T09:23:51;3.40;;;0.20;;
53309;SDS011;39197;53.200;5.792;2022-07-23T09:26:35;1.48;;;0.10;;
53309;SDS011;39197;53.200;5.792;2022-07-23T09:31:55;2.08;;;0.20;;
53309;SDS011;39197;53.200;5.792;2022-07-23T09:34:31;2.28;;;0.40;;
53309;SDS011;39197;53.200;5.792;2022-07-23T09:37:18;1.88;;;0.30;;
53309;SDS011;39197;53.200;5.792;2022-07-23T09:39:45;3.75;;;0.57;;
53309;SDS011;39197;53.200;5.792;2022-07-23T09:44:42;2.47;;;0.65;;
53309;SDS011;39197;53.200;5.792;2022-07-23T09:47:09;2.15;;;0.40;;
53309;SDS011;39197;53.200;5.792;2022-07-23T09:49:35;1.08;;;0.30;;
53309;SDS011;39197;53.200;5.792;2022-07-23T09:52:01;2.47;;;0.35;;
53309;SDS011;39197;53.200;5.792;2022-07-23T09:54:33;5.10;;;0.70;;
53309;SDS011;39197;53.200;5.792;2022-07-23T09:57:07;0.98;;;0.20;;
53309;SDS011;39197;53.200;5.792;2022-07-23T09:59:37;2.33;;;0.60;;
53309;SDS011;39197;53.200;5.792;2022-07-23T10:02:05;2.95;;;0.50;;
53309;SDS011;39197;53.200;5.792;2022-07-23T10:04:32;1.77;;;0.52;;
53309;SDS011;39197;53.200;5.792;2022-07-23T10:06:59;2.33;;;0.30;;
53309;SDS011;39197;53.200;5.792;2022-07-23T10:09:27;1.42;;;0.30;;
53309;SDS011;39197;53.200;5.792;2022-07-23T10:11:57;3.80;;;0.38;;
53309;SDS011;39197;53.200;5.792;2022-07-23T10:14:41;2.53;;;0.47;;
53309;SDS011;39197;53.200;5.792;2022-07-23T10:17:08;1.80;;;0.43;;
53309;SDS011;39197;53.200;5.792;2022-07-23T10:19:34;1.23;;;0.52;;
53309;SDS011;39197;53.200;5.792;2022-07-23T10:22:01;2.58;;;0.40;;
53309;SDS011;39197;53.200;5.792;2022-07-23T10:38:18;1.20;;;0.25;;
53309;SDS011;39197;53.200;5.792;2022-07-23T10:40:56;2.67;;;0.28;;
53309;SDS011;39197;53.200;5.792;2022-07-23T10:43:23;1.63;;;0.30;;
53309;SDS011;39197;53.200;5.792;2022-07-23T10:45:49;1.73;;;0.52;;
53309;SDS011;39197;53.200;5.792;2022-07-23T10:48:19;1.77;;;0.30;;
53309;SDS011;39197;53.200;5.792;2022-07-23T10:59:18;3.90;;;0.30;;
53309;SDS011;39197;53.200;5.792;2022-07-23T11:01:44;2.42;;;0.30;;
53309;SDS011;39197;53.200;5.792;2022-07-23T11:04:10;3.80;;;0.38;;
53309;SDS011;39197;53.200;5.792;2022-07-23T11:07:06;2.15;;;0.30;;
53309;SDS011;39197;53.200;5.792;2022-07-23T11:09:42;9.27;;;5.35;;
53309;SDS011;39197;53.200;5.792;2022-07-23T11:14:59;1.92;;;0.52;;
53309;SDS011;39197;53.200;5.792;2022-07-23T11:20:16;1.30;;;0.23;;
53309;SDS011;39197;53.200;5.792;2022-07-23T11:25:09;3.55;;;0.77;;
53309;SDS011;39197;53.200;5.792;2022-07-23T11:27:44;3.22;;;0.20;;
53309;SDS011;39197;53.200;5.792;2022-07-23T11:30:56;1.98;;;0.63;;
53309;SDS011;39197;53.200;5.792;2022-07-23T11:35:33;2.53;;;0.20;;
53309;SDS011;39197;53.200;5.792;2022-07-23T11:38:04;1.63;;;0.25;;
53309;SDS011;39197;53.200;5.792;2022-07-23T11:40:32;1.05;;;0.20;;
53309;SDS011;39197;53.200;5.792;2022-07-23T11:43:02;0.65;;;0.20;;
53309;SDS011;39197;53.200;5.792;2022-07-23T11:45:34;2.13;;;0.50;;
53309;SDS011;39197;53.200;5.792;2022-07-23T11:48:02;0.77;;;0.30;;
53309;SDS011;39197;53.200;5.792;2022-07-23T11:50:29;0.90;;;0.28;;
53309;SDS011;39197;53.200;5.792;2022-07-23T11:52:55;2.03;;;0.55;;
53309;SDS011;39197;53.200;5.792;2022-07-23T11:55:24;1.73;;;0.30;;
53309;SDS011;39197;53.200;5.792;2022-07-23T11:57:51;3.00;;;2.35;;
53309;SDS011;39197;53.200;5.792;2022-07-23T12:00:22;2.25;;;1.08;;
53309;SDS011;39197;53.200;5.792;2022-07-23T12:02:50;1.48;;;0.47;;
53309;SDS011;39197;53.200;5.792;2022-07-23T12:05:21;2.83;;;0.70;;
53309;SDS011;39197;53.200;5.792;2022-07-23T12:07:52;2.13;;;0.38;;
53309;SDS011;39197;53.200;5.792;2022-07-23T12:10:23;1.65;;;0.20;;
53309;SDS011;39197;53.200;5.792;2022-07-23T12:12:52;1.73;;;0.20;;
53309;SDS011;39197;53.200;5.792;2022-07-23T12:15:20;2.05;;;1.02;;
53309;SDS011;39197;53.200;5.792;2022-07-23T12:17:51;1.48;;;0.20;;
53309;SDS011;39197;53.200;5.792;2022-07-23T12:20:20;3.13;;;0.25;;
53309;SDS011;39197;53.200;5.792;2022-07-23T12:22:51;2.25;;;0.20;;
53309;SDS011;39197;53.200;5.792;2022-07-23T12:25:21;2.78;;;0.75;;
53309;SDS011;39197;53.200;5.792;2022-07-23T12:30:48;2.03;;;0.40;;
53309;SDS011;39197;53.200;5.792;2022-07-23T12:33:25;0.60;;;0.20;;
53309;SDS011;39197;53.200;5.792;2022-07-23T12:36:04;1.73;;;0.80;;
53309;SDS011;39197;53.200;5.792;2022-07-23T12:38:44;1.50;;;0.52;;
53309;SDS011;39197;53.200;5.792;2022-07-23T12:41:13;4.07;;;1.30;;
53309;SDS011;39197;53.200;5.792;2022-07-23T12:43:40;2.10;;;0.20;;
53309;SDS011;39197;53.200;5.792;2022-07-23T12:46:14;2.47;;;0.30;;
53309;SDS011;39197;53.200;5.792;2022-07-23T12:53:47;3.70;;;1.35;;
53309;SDS011;39197;53.200;5.792;2022-07-23T12:56:19;2.63;;;0.30;;
53309;SDS011;39197;53.200;5.792;2022-07-23T13:04:02;1.90;;;0.30;;
53309;SDS011;39197;53.200;5.792;2022-07-23T13:06:29;2.95;;;0.95;;
53309;SDS011;39197;53.200;5.792;2022-07-23T13:08:57;1.58;;;0.50;;
53309;SDS011;39197;53.200;5.792;2022-07-23T13:11:22;1.42;;;0.70;;
53309;SDS011;39197;53.200;5.792;2022-07-23T13:13:48;2.80;;;1.38;;
53309;SDS011;39197;53.200;5.792;2022-07-23T13:16:15;1.88;;;0.50;;
53309;SDS011;39197;53.200;5.792;2022-07-23T13:18:40;1.60;;;0.40;;
53309;SDS011;39197;53.200;5.792;2022-07-23T13:21:06;4.13;;;1.35;;
53309;SDS011;39197;53.200;5.792;2022-07-23T13:23:32;2.67;;;0.77;;
53309;SDS011;39197;53.200;5.792;2022-07-23T13:25:57;1.23;;;0.35;;
53309;SDS011;39197;53.200;5.792;2022-07-23T13:28:23;4.22;;;0.52;;
53309;SDS011;39197;53.200;5.792;2022-07-23T13:30:49;3.47;;;0.70;;
53309;SDS011;39197;53.200;5.792;2022-07-23T13:33:19;4.78;;;1.77;;
53309;SDS011;39197;53.200;5.792;2022-07-23T13:35:47;1.65;;;0.60;;
53309;SDS011;39197;53.200;5.792;2022-07-23T13:38:14;1.58;;;0.82;;
53309;SDS011;39197;53.200;5.792;2022-07-23T13:40:40;1.13;;;0.40;;
53309;SDS011;39197;53.200;5.792;2022-07-23T13:43:08;3.13;;;0.73;;
53309;SDS011;39197;53.200;5.792;2022-07-23T13:45:36;5.30;;;3.10;;
53309;SDS011;39197;53.200;5.792;2022-07-23T13:48:02;1.58;;;0.68;;
53309;SDS011;39197;53.200;5.792;2022-07-23T13:50:29;2.83;;;0.70;;
53309;SDS011;39197;53.200;5.792;2022-07-23T13:52:54;2.38;;;0.70;;
53309;SDS011;39197;53.200;5.792;2022-07-23T13:55:20;2.38;;;1.13;;
53309;SDS011;39197;53.200;5.792;2022-07-23T13:57:46;4.50;;;1.02;;
53309;SDS011;39197;53.200;5.792;2022-07-23T14:00:11;1.77;;;0.70;;
53309;SDS011;39197;53.200;5.792;2022-07-23T14:02:38;3.70;;;1.40;;
53309;SDS011;39197;53.200;5.792;2022-07-23T14:05:06;4.65;;;1.08;;
53309;SDS011;39197;53.200;5.792;2022-07-23T14:07:33;3.80;;;1.20;;
53309;SDS011;39197;53.200;5.792;2022-07-23T14:10:00;4.18;;;1.20;;
53309;SDS011;39197;53.200;5.792;2022-07-23T14:12:26;1.95;;;0.60;;
53309;SDS011;39197;53.200;5.792;2022-07-23T14:14:52;3.38;;;1.02;;
53309;SDS011;39197;53.200;5.792;2022-07-23T14:17:18;3.35;;;0.70;;
53309;SDS011;39197;53.200;5.792;2022-07-23T14:19:43;4.60;;;1.60;;
53309;SDS011;39197;53.200;5.792;2022-07-23T14:22:10;2.85;;;0.90;;
53309;SDS011;39197;53.200;5.792;2022-07-23T14:24:35;1.92;;;1.20;;
53309;SDS011;39197;53.200;5.792;2022-07-23T14:27:02;4.88;;;1.30;;
53309;SDS011;39197;53.200;5.792;2022-07-23T14:29:28;1.63;;;0.75;;
53309;SDS011;39197;53.200;5.792;2022-07-23T14:31:55;2.40;;;1.10;;
53309;SDS011;39197;53.200;5.792;2022-07-23T14:34:21;2.42;;;0.73;;
53309;SDS011;39197;53.200;5.792;2022-07-23T14:36:46;5.30;;;0.90;;
53309;SDS011;39197;53.200;5.792;2022-07-23T14:39:12;2.03;;;0.60;;
53309;SDS011;39197;53.200;5.792;2022-07-23T14:41:40;4.15;;;1.50;;
53309;SDS011;39197;53.200;5.792;2022-07-23T14:44:06;3.47;;;1.63;;
53309;SDS011;39197;53.200;5.792;2022-07-23T14:46:32;2.78;;;0.95;;
53309;SDS011;39197;53.200;5.792;2022-07-23T14:48:57;3.83;;;1.63;;
53309;SDS011;39197;53.200;5.792;2022-07-23T14:51:23;5.55;;;2.63;;
53309;SDS011;39197;53.200;5.792;2022-07-23T14:53:49;4.05;;;1.27;;
53309;SDS011;39197;53.200;5.792;2022-07-23T14:56:14;2.90;;;0.70;;
53309;SDS011;39197;53.200;5.792;2022-07-23T14:58:40;2.97;;;1.40;;
53309;SDS011;39197;53.200;5.792;2022-07-23T15:01:07;10.43;;;9.35;;
53309;SDS011;39197;53.200;5.792;2022-07-23T15:03:32;4.00;;;2.00;;
53309;SDS011;39197;53.200;5.792;2022-07-23T15:05:58;2.85;;;1.73;;
53309;SDS011;39197;53.200;5.792;2022-07-23T15:08:24;6.80;;;6.05;;
53309;SDS011;39197;53.200;5.792;2022-07-23T15:10:50;3.42;;;1.40;;
53309;SDS011;39197;53.200;5.792;2022-07-23T15:13:16;4.38;;;2.17;;
53309;SDS011;39197;53.200;5.792;2022-07-23T15:15:41;2.10;;;0.90;;
53309;SDS011;39197;53.200;5.792;2022-07-23T15:18:07;4.25;;;1.00;;
53309;SDS011;39197;53.200;5.792;2022-07-23T15:20:33;4.65;;;1.63;;
53309;SDS011;39197;53.200;5.792;2022-07-23T15:22:58;3.72;;;1.85;;
53309;SDS011;39197;53.200;5.792;2022-07-23T15:25:24;4.80;;;3.17;;
53309;SDS011;39197;53.200;5.792;2022-07-23T15:27:50;3.65;;;1.58;;
53309;SDS011;39197;53.200;5.792;2022-07-23T15:30:15;4.55;;;1.40;;
53309;SDS011;39197;53.200;5.792;2022-07-23T15:32:41;3.03;;;2.72;;
53309;SDS011;39197;53.200;5.792;2022-07-23T15:35:07;5.15;;;3.72;;
53309;SDS011;39197;53.200;5.792;2022-07-23T15:37:33;3.92;;;2.40;;
53309;SDS011;39197;53.200;5.792;2022-07-23T15:39:59;5.53;;;2.13;;
53309;SDS011;39197;53.200;5.792;2022-07-23T15:42:25;2.72;;;1.75;;